sensor_id;sensor_type;location;lat;lon;timestamp;P1;durP1;ratioP1;P2;durP2;ratioP2
4704;SDS011;2366;51.332;6.610;2022-09-30T00:02:07;18.43;;;9.77;;
4704;SDS011;2366;51.332;6.610;2022-09-30T00:04:34;14.82;;;9.27;;
4704;SDS011;2366;51.332;6.610;2022-09-30T00:07:00;11.93;;;9.30;;
4704;SDS011;2366;51.332;6.610;2022-09-30T00:09:25;11.00;;;8.60;;
4704;SDS011;2366;51.332;6.610;2022-09-30T00:11:51;10.20;;;8.70;;
4704;SDS011;2366;51.332;6.610;2022-09-30T00:14:17;13.27;;;10.47;;
4704;SDS011;2366;51.332;6.610;2022-09-30T00:16:45;17.80;;;9.48;;
4704;SDS011;2366;51.332;6.610;2022-09-30T00:19:10;14.27;;;9.50;;
4704;SDS011;2366;51.332;6.610;2022-09-30T00:21:36;11.67;;;8.27;;
4704;SDS011;2366;51.332;6.610;2022-09-30T00:24:03;12.65;;;9.18;;
4704;SDS011;2366;51.332;6.610;2022-09-30T00:26:30;13.43;;;9.70;;
4704;SDS011;2366;51.332;6.610;2022-09-30T00:28:56;12.38;;;8.38;;
4704;SDS011;2366;51.332;6.610;2022-09-30T00:31:25;18.85;;;11.23;;
4704;SDS011;2366;51.332;6.610;2022-09-30T00:33:52;15.77;;;10.90;;
4704;SDS011;2366;51.332;6.610;2022-09-30T00:36:41;12.32;;;9.85;;
4704;SDS011;2366;51.332;6.610;2022-09-30T00:39:10;10.80;;;8.45;;
4704;SDS011;2366;51.332;6.610;2022-09-30T00:41:42;13.48;;;8.63;;
4704;SDS011;2366;51.332;6.610;2022-09-30T00:50:02;12.75;;;9.18;;
4704;SDS011;2366;51.332;6.610;2022-09-30T00:52:49;12.90;;;9.07;;
4704;SDS011;2366;51.332;6.610;2022-09-30T00:55:25;16.05;;;10.32;;
4704;SDS011;2366;51.332;6.610;2022-09-30T00:57:55;11.27;;;8.98;;
4704;SDS011;2366;51.332;6.610;2022-09-30T01:00:23;23.73;;;9.07;;
4704;SDS011;2366;51.332;6.610;2022-09-30T01:02:48;13.10;;;9.53;;
4704;SDS011;2366;51.332;6.610;2022-09-30T01:05:14;13.90;;;8.70;;
4704;SDS011;2366;51.332;6.610;2022-09-30T01:07:39;10.57;;;8.10;;
4704;SDS011;2366;51.332;6.610;2022-09-30T01:10:05;10.20;;;6.63;;
4704;SDS011;2366;51.332;6.610;2022-09-30T01:12:30;11.50;;;9.10;;
4704;SDS011;2366;51.332;6.610;2022-09-30T01:14:56;11.80;;;8.57;;
4704;SDS011;2366;51.332;6.610;2022-09-30T01:39:45;14.15;;;9.75;;
4704;SDS011;2366;51.332;6.610;2022-09-30T01:50:54;10.32;;;7.00;;
4704;SDS011;2366;51.332;6.610;2022-09-30T01:53:29;13.25;;;8.05;;
4704;SDS011;2366;51.332;6.610;2022-09-30T01:56:11;11.82;;;8.10;;
4704;SDS011;2366;51.332;6.610;2022-09-30T01:58:58;13.27;;;8.77;;
4704;SDS011;2366;51.332;6.610;2022-09-30T02:01:31;13.32;;;8.25;;
4704;SDS011;2366;51.332;6.610;2022-09-30T02:04:13;9.48;;;8.35;;
4704;SDS011;2366;51.332;6.610;2022-09-30T02:06:44;12.43;;;8.95;;
4704;SDS011;2366;51.332;6.610;2022-09-30T02:09:19;11.20;;;7.25;;
4704;SDS011;2366;51.332;6.610;2022-09-30T02:11:49;16.00;;;9.23;;
4704;SDS011;2366;51.332;6.610;2022-09-30T02:14:34;10.48;;;8.98;;
4704;SDS011;2366;51.332;6.610;2022-09-30T02:17:12;19.33;;;9.77;;
4704;SDS011;2366;51.332;6.610;2022-09-30T02:19:45;12.82;;;10.35;;
4704;SDS011;2366;51.332;6.610;2022-09-30T02:22:25;10.95;;;8.40;;
4704;SDS011;2366;51.332;6.610;2022-09-30T02:25:04;13.77;;;9.30;;
4704;SDS011;2366;51.332;6.610;2022-09-30T02:27:37;9.50;;;8.50;;
4704;SDS011;2366;51.332;6.610;2022-09-30T02:30:06;16.65;;;9.65;;
4704;SDS011;2366;51.332;6.610;2022-09-30T02:32:35;10.38;;;9.30;;
4704;SDS011;2366;51.332;6.610;2022-09-30T02:35:06;15.15;;;9.68;;
4704;SDS011;2366;51.332;6.610;2022-09-30T02:37:47;15.82;;;10.68;;
4704;SDS011;2366;51.332;6.610;2022-09-30T02:40:24;19.35;;;13.57;;
4704;SDS011;2366;51.332;6.610;2022-09-30T02:42:55;20.48;;;11.70;;
4704;SDS011;2366;51.332;6.610;2022-09-30T02:45:21;19.45;;;12.27;;
4704;SDS011;2366;51.332;6.610;2022-09-30T02:50:29;16.70;;;8.95;;
4704;SDS011;2366;51.332;6.610;2022-09-30T02:53:02;15.00;;;10.95;;
4704;SDS011;2366;51.332;6.610;2022-09-30T02:58:20;13.23;;;9.82;;
4704;SDS011;2366;51.332;6.610;2022-09-30T03:00:50;18.98;;;10.55;;
4704;SDS011;2366;51.332;6.610;2022-09-30T03:03:17;13.82;;;10.02;;
4704;SDS011;2366;51.332;6.610;2022-09-30T03:05:47;19.17;;;10.68;;
4704;SDS011;2366;51.332;6.610;2022-09-30T03:08:14;15.68;;;10.27;;
4704;SDS011;2366;51.332;6.610;2022-09-30T03:10:39;20.70;;;11.40;;
4704;SDS011;2366;51.332;6.610;2022-09-30T03:30:15;26.73;;;16.23;;
4704;SDS011;2366;51.332;6.610;2022-09-30T03:45:52;23.17;;;16.30;;
4704;SDS011;2366;51.332;6.610;2022-09-30T03:48:36;24.70;;;16.38;;
4704;SDS011;2366;51.332;6.610;2022-09-30T03:51:03;22.92;;;17.23;;
4704;SDS011;2366;51.332;6.610;2022-09-30T03:53:35;22.42;;;17.35;;
4704;SDS011;2366;51.332;6.610;2022-09-30T03:56:02;30.75;;;20.48;;
4704;SDS011;2366;51.332;6.610;2022-09-30T03:58:28;35.43;;;22.33;;
4704;SDS011;2366;51.332;6.610;2022-09-30T04:00:53;28.10;;;19.70;;
4704;SDS011;2366;51.332;6.610;2022-09-30T04:03:21;38.22;;;24.63;;
4704;SDS011;2366;51.332;6.610;2022-09-30T04:05:47;32.47;;;21.67;;
4704;SDS011;2366;51.332;6.610;2022-09-30T04:08:13;32.27;;;23.10;;
4704;SDS011;2366;51.332;6.610;2022-09-30T04:10:39;42.53;;;24.83;;
4704;SDS011;2366;51.332;6.610;2022-09-30T04:13:05;36.50;;;25.65;;
4704;SDS011;2366;51.332;6.610;2022-09-30T04:15:31;41.15;;;26.92;;
4704;SDS011;2366;51.332;6.610;2022-09-30T04:17:57;43.73;;;29.13;;
4704;SDS011;2366;51.332;6.610;2022-09-30T04:20:23;40.90;;;28.60;;
4704;SDS011;2366;51.332;6.610;2022-09-30T04:22:48;50.87;;;28.53;;
4704;SDS011;2366;51.332;6.610;2022-09-30T04:25:14;47.13;;;31.23;;
4704;SDS011;2366;51.332;6.610;2022-09-30T04:27:39;50.93;;;33.20;;
4704;SDS011;2366;51.332;6.610;2022-09-30T04:30:04;48.43;;;33.30;;
4704;SDS011;2366;51.332;6.610;2022-09-30T04:32:30;54.87;;;33.07;;
4704;SDS011;2366;51.332;6.610;2022-09-30T04:34:56;48.27;;;30.57;;
4704;SDS011;2366;51.332;6.610;2022-09-30T04:37:21;54.23;;;32.07;;
4704;SDS011;2366;51.332;6.610;2022-09-30T04:39:47;51.33;;;32.60;;
4704;SDS011;2366;51.332;6.610;2022-09-30T04:42:13;53.73;;;34.43;;
4704;SDS011;2366;51.332;6.610;2022-09-30T04:44:38;57.70;;;35.43;;
4704;SDS011;2366;51.332;6.610;2022-09-30T04:47:04;55.63;;;33.80;;
4704;SDS011;2366;51.332;6.610;2022-09-30T04:49:30;65.15;;;35.55;;
4704;SDS011;2366;51.332;6.610;2022-09-30T04:51:56;58.13;;;32.20;;
4704;SDS011;2366;51.332;6.610;2022-09-30T04:54:21;47.13;;;30.77;;
4704;SDS011;2366;51.332;6.610;2022-09-30T04:56:47;46.37;;;32.07;;
4704;SDS011;2366;51.332;6.610;2022-09-30T04:59:12;48.63;;;31.37;;
4704;SDS011;2366;51.332;6.610;2022-09-30T05:01:37;44.23;;;31.30;;
4704;SDS011;2366;51.332;6.610;2022-09-30T05:04:04;46.65;;;29.92;;
4704;SDS011;2366;51.332;6.610;2022-09-30T05:06:29;49.13;;;30.50;;
4704;SDS011;2366;51.332;6.610;2022-09-30T05:08:55;43.60;;;28.30;;
4704;SDS011;2366;51.332;6.610;2022-09-30T05:11:20;47.27;;;32.13;;
4704;SDS011;2366;51.332;6.610;2022-09-30T05:13:47;54.27;;;29.13;;
4704;SDS011;2366;51.332;6.610;2022-09-30T05:16:13;47.72;;;28.95;;
4704;SDS011;2366;51.332;6.610;2022-09-30T05:18:39;52.67;;;31.05;;
4704;SDS011;2366;51.332;6.610;2022-09-30T05:21:06;56.63;;;32.97;;
4704;SDS011;2366;51.332;6.610;2022-09-30T05:23:32;50.47;;;29.20;;
4704;SDS011;2366;51.332;6.610;2022-09-30T05:25:58;42.93;;;29.50;;
4704;SDS011;2366;51.332;6.610;2022-09-30T05:28:25;44.47;;;27.92;;
4704;SDS011;2366;51.332;6.610;2022-09-30T05:30:57;55.03;;;33.53;;
4704;SDS011;2366;51.332;6.610;2022-09-30T05:33:24;48.28;;;31.52;;
4704;SDS011;2366;51.332;6.610;2022-09-30T05:35:49;39.90;;;28.47;;
4704;SDS011;2366;51.332;6.610;2022-09-30T05:38:15;40.03;;;25.83;;
4704;SDS011;2366;51.332;6.610;2022-09-30T05:40:40;38.93;;;24.40;;
4704;SDS011;2366;51.332;6.610;2022-09-30T05:43:06;43.23;;;27.00;;
4704;SDS011;2366;51.332;6.610;2022-09-30T05:45:32;38.53;;;25.80;;
4704;SDS011;2366;51.332;6.610;2022-09-30T05:47:58;36.92;;;24.52;;
4704;SDS011;2366;51.332;6.610;2022-09-30T05:50:24;36.93;;;21.43;;
4704;SDS011;2366;51.332;6.610;2022-09-30T05:52:50;29.80;;;20.17;;
4704;SDS011;2366;51.332;6.610;2022-09-30T05:55:16;32.58;;;21.27;;
4704;SDS011;2366;51.332;6.610;2022-09-30T05:57:43;31.17;;;18.88;;
4704;SDS011;2366;51.332;6.610;2022-09-30T06:00:11;26.25;;;18.00;;
4704;SDS011;2366;51.332;6.610;2022-09-30T06:02:37;33.30;;;18.40;;
4704;SDS011;2366;51.332;6.610;2022-09-30T06:05:03;24.03;;;16.37;;
4704;SDS011;2366;51.332;6.610;2022-09-30T06:07:29;22.17;;;15.90;;
4704;SDS011;2366;51.332;6.610;2022-09-30T06:09:55;29.50;;;15.63;;
4704;SDS011;2366;51.332;6.610;2022-09-30T06:12:20;19.70;;;14.63;;
4704;SDS011;2366;51.332;6.610;2022-09-30T06:14:45;19.80;;;14.93;;
4704;SDS011;2366;51.332;6.610;2022-09-30T06:17:11;24.30;;;13.90;;
4704;SDS011;2366;51.332;6.610;2022-09-30T06:19:36;25.63;;;14.03;;
4704;SDS011;2366;51.332;6.610;2022-09-30T06:22:01;19.00;;;12.10;;
4704;SDS011;2366;51.332;6.610;2022-09-30T06:24:27;16.77;;;12.43;;
4704;SDS011;2366;51.332;6.610;2022-09-30T06:26:52;19.93;;;12.07;;
4704;SDS011;2366;51.332;6.610;2022-09-30T06:29:18;14.67;;;10.43;;
4704;SDS011;2366;51.332;6.610;2022-09-30T06:31:43;27.30;;;14.67;;
4704;SDS011;2366;51.332;6.610;2022-09-30T06:34:09;17.80;;;11.47;;
4704;SDS011;2366;51.332;6.610;2022-09-30T06:36:34;21.10;;;9.73;;
4704;SDS011;2366;51.332;6.610;2022-09-30T06:39:00;14.93;;;10.07;;
4704;SDS011;2366;51.332;6.610;2022-09-30T06:41:26;19.97;;;11.30;;
4704;SDS011;2366;51.332;6.610;2022-09-30T06:43:52;13.33;;;10.10;;
4704;SDS011;2366;51.332;6.610;2022-09-30T06:46:18;11.40;;;8.90;;
4704;SDS011;2366;51.332;6.610;2022-09-30T06:48:57;14.57;;;8.68;;
4704;SDS011;2366;51.332;6.610;2022-09-30T06:51:23;10.50;;;7.28;;
4704;SDS011;2366;51.332;6.610;2022-09-30T06:53:53;13.18;;;8.38;;
4704;SDS011;2366;51.332;6.610;2022-09-30T06:56:20;6.95;;;6.18;;
4704;SDS011;2366;51.332;6.610;2022-09-30T06:58:46;10.60;;;6.00;;
4704;SDS011;2366;51.332;6.610;2022-09-30T07:01:11;6.50;;;5.90;;
4704;SDS011;2366;51.332;6.610;2022-09-30T07:03:39;7.47;;;6.65;;
4704;SDS011;2366;51.332;6.610;2022-09-30T07:06:10;12.25;;;6.45;;
4704;SDS011;2366;51.332;6.610;2022-09-30T07:08:37;5.50;;;4.90;;
4704;SDS011;2366;51.332;6.610;2022-09-30T07:11:06;9.65;;;6.00;;
4704;SDS011;2366;51.332;6.610;2022-09-30T07:13:36;10.20;;;5.85;;
4704;SDS011;2366;51.332;6.610;2022-09-30T07:16:03;23.90;;;5.85;;
4704;SDS011;2366;51.332;6.610;2022-09-30T07:18:29;8.85;;;5.97;;
4704;SDS011;2366;51.332;6.610;2022-09-30T07:20:55;8.07;;;6.37;;
4704;SDS011;2366;51.332;6.610;2022-09-30T07:23:20;8.33;;;6.00;;
4704;SDS011;2366;51.332;6.610;2022-09-30T07:25:56;9.15;;;5.75;;
4704;SDS011;2366;51.332;6.610;2022-09-30T07:28:29;9.93;;;5.13;;
4704;SDS011;2366;51.332;6.610;2022-09-30T07:30:58;12.25;;;6.80;;
4704;SDS011;2366;51.332;6.610;2022-09-30T07:33:25;11.43;;;7.10;;
4704;SDS011;2366;51.332;6.610;2022-09-30T07:35:55;9.83;;;6.83;;
4704;SDS011;2366;51.332;6.610;2022-09-30T07:38:22;6.57;;;5.93;;
4704;SDS011;2366;51.332;6.610;2022-09-30T07:40:50;7.77;;;5.57;;
4704;SDS011;2366;51.332;6.610;2022-09-30T07:43:22;9.27;;;6.50;;
4704;SDS011;2366;51.332;6.610;2022-09-30T07:45:48;19.30;;;7.00;;
4704;SDS011;2366;51.332;6.610;2022-09-30T07:48:14;8.37;;;6.90;;
4704;SDS011;2366;51.332;6.610;2022-09-30T07:50:58;7.07;;;5.53;;
4704;SDS011;2366;51.332;6.610;2022-09-30T07:53:23;10.80;;;6.10;;
4704;SDS011;2366;51.332;6.610;2022-09-30T07:55:49;22.00;;;6.97;;
4704;SDS011;2366;51.332;6.610;2022-09-30T07:58:14;8.87;;;5.63;;
4704;SDS011;2366;51.332;6.610;2022-09-30T08:00:39;10.20;;;6.33;;
4704;SDS011;2366;51.332;6.610;2022-09-30T08:03:06;10.40;;;6.67;;
4704;SDS011;2366;51.332;6.610;2022-09-30T08:05:37;9.70;;;6.53;;
4704;SDS011;2366;51.332;6.610;2022-09-30T08:08:03;10.70;;;7.23;;
4704;SDS011;2366;51.332;6.610;2022-09-30T08:10:32;8.93;;;6.67;;
4704;SDS011;2366;51.332;6.610;2022-09-30T08:12:58;13.10;;;7.70;;
4704;SDS011;2366;51.332;6.610;2022-09-30T08:15:23;11.23;;;7.13;;
4704;SDS011;2366;51.332;6.610;2022-09-30T08:17:49;10.43;;;7.80;;
4704;SDS011;2366;51.332;6.610;2022-09-30T08:20:14;12.00;;;7.90;;
4704;SDS011;2366;51.332;6.610;2022-09-30T08:22:39;10.20;;;7.43;;
4704;SDS011;2366;51.332;6.610;2022-09-30T08:25:05;20.57;;;8.83;;
4704;SDS011;2366;51.332;6.610;2022-09-30T08:27:31;12.80;;;8.80;;
4704;SDS011;2366;51.332;6.610;2022-09-30T08:29:56;12.30;;;8.23;;
4704;SDS011;2366;51.332;6.610;2022-09-30T08:32:21;9.57;;;8.40;;
4704;SDS011;2366;51.332;6.610;2022-09-30T08:34:47;10.90;;;8.37;;
4704;SDS011;2366;51.332;6.610;2022-09-30T08:37:12;15.80;;;8.20;;
4704;SDS011;2366;51.332;6.610;2022-09-30T08:39:37;11.70;;;8.43;;
4704;SDS011;2366;51.332;6.610;2022-09-30T08:42:06;13.77;;;8.77;;
4704;SDS011;2366;51.332;6.610;2022-09-30T08:44:53;10.97;;;8.50;;
4704;SDS011;2366;51.332;6.610;2022-09-30T08:47:42;11.40;;;8.23;;
4704;SDS011;2366;51.332;6.610;2022-09-30T08:50:18;15.90;;;9.87;;
4704;SDS011;2366;51.332;6.610;2022-09-30T08:52:59;20.90;;;8.87;;
4704;SDS011;2366;51.332;6.610;2022-09-30T08:55:39;10.83;;;9.10;;
4704;SDS011;2366;51.332;6.610;2022-09-30T08:58:54;10.07;;;9.07;;
4704;SDS011;2366;51.332;6.610;2022-09-30T09:01:09;8.80;;;7.90;;
4704;SDS011;2366;51.332;6.610;2022-09-30T09:03:35;19.97;;;9.33;;
4704;SDS011;2366;51.332;6.610;2022-09-30T09:09:09;10.87;;;8.20;;
4704;SDS011;2366;51.332;6.610;2022-09-30T09:16:58;12.63;;;9.60;;
4704;SDS011;2366;51.332;6.610;2022-09-30T09:19:31;10.80;;;8.90;;
4704;SDS011;2366;51.332;6.610;2022-09-30T09:22:02;18.30;;;10.17;;
4704;SDS011;2366;51.332;6.610;2022-09-30T09:24:44;14.70;;;9.57;;
4704;SDS011;2366;51.332;6.610;2022-09-30T09:30:20;27.63;;;9.87;;
4704;SDS011;2366;51.332;6.610;2022-09-30T09:32:53;13.97;;;10.50;;
4704;SDS011;2366;51.332;6.610;2022-09-30T09:35:35;15.40;;;11.63;;
4704;SDS011;2366;51.332;6.610;2022-09-30T09:38:45;13.70;;;10.60;;
4704;SDS011;2366;51.332;6.610;2022-09-30T09:47:28;16.23;;;11.57;;
4704;SDS011;2366;51.332;6.610;2022-09-30T09:49:55;14.10;;;11.30;;
4704;SDS011;2366;51.332;6.610;2022-09-30T09:52:28;16.33;;;11.20;;
4704;SDS011;2366;51.332;6.610;2022-09-30T09:54:58;11.88;;;10.27;;
4704;SDS011;2366;51.332;6.610;2022-09-30T09:57:25;17.70;;;11.00;;
4704;SDS011;2366;51.332;6.610;2022-09-30T09:59:59;15.23;;;11.77;;
4704;SDS011;2366;51.332;6.610;2022-09-30T10:03:08;15.95;;;10.98;;
4704;SDS011;2366;51.332;6.610;2022-09-30T10:05:40;17.70;;;11.50;;
4704;SDS011;2366;51.332;6.610;2022-09-30T10:08:19;18.38;;;11.98;;
4704;SDS011;2366;51.332;6.610;2022-09-30T10:10:49;24.48;;;12.55;;
4704;SDS011;2366;51.332;6.610;2022-09-30T10:13:30;20.20;;;12.40;;
4704;SDS011;2366;51.332;6.610;2022-09-30T10:16:04;17.60;;;11.05;;
4704;SDS011;2366;51.332;6.610;2022-09-30T10:18:33;14.07;;;10.80;;
4704;SDS011;2366;51.332;6.610;2022-09-30T10:21:02;18.92;;;12.65;;
4704;SDS011;2366;51.332;6.610;2022-09-30T10:23:32;14.95;;;10.98;;
4704;SDS011;2366;51.332;6.610;2022-09-30T10:28:46;22.95;;;14.15;;
4704;SDS011;2366;51.332;6.610;2022-09-30T10:33:50;20.77;;;11.65;;
4704;SDS011;2366;51.332;6.610;2022-09-30T10:36:35;18.33;;;12.40;;
4704;SDS011;2366;51.332;6.610;2022-09-30T10:39:07;14.98;;;10.63;;
4704;SDS011;2366;51.332;6.610;2022-09-30T10:41:43;16.75;;;11.93;;
4704;SDS011;2366;51.332;6.610;2022-09-30T10:44:21;15.57;;;12.77;;
4704;SDS011;2366;51.332;6.610;2022-09-30T10:46:49;20.05;;;12.57;;
4704;SDS011;2366;51.332;6.610;2022-09-30T10:51:48;19.45;;;11.57;;
4704;SDS011;2366;51.332;6.610;2022-09-30T10:54:32;17.23;;;11.77;;
4704;SDS011;2366;51.332;6.610;2022-09-30T10:57:01;13.43;;;11.02;;
4704;SDS011;2366;51.332;6.610;2022-09-30T10:59:35;16.42;;;11.88;;
4704;SDS011;2366;51.332;6.610;2022-09-30T11:07:45;10.95;;;9.10;;
4704;SDS011;2366;51.332;6.610;2022-09-30T11:10:30;13.55;;;9.25;;
4704;SDS011;2366;51.332;6.610;2022-09-30T11:13:06;14.60;;;8.13;;
4704;SDS011;2366;51.332;6.610;2022-09-30T11:15:55;12.60;;;9.95;;
4704;SDS011;2366;51.332;6.610;2022-09-30T11:18:34;8.65;;;6.80;;
4704;SDS011;2366;51.332;6.610;2022-09-30T11:21:09;10.40;;;8.52;;
4704;SDS011;2366;51.332;6.610;2022-09-30T11:23:43;9.07;;;8.05;;
4704;SDS011;2366;51.332;6.610;2022-09-30T11:31:30;8.00;;;6.35;;
4704;SDS011;2366;51.332;6.610;2022-09-30T11:39:23;8.05;;;6.15;;
4704;SDS011;2366;51.332;6.610;2022-09-30T11:41:57;12.10;;;5.68;;
4704;SDS011;2366;51.332;6.610;2022-09-30T11:44:55;9.38;;;6.35;;
4704;SDS011;2366;51.332;6.610;2022-09-30T11:53:59;13.15;;;6.43;;
4704;SDS011;2366;51.332;6.610;2022-09-30T11:58:59;6.93;;;4.17;;
4704;SDS011;2366;51.332;6.610;2022-09-30T12:01:28;15.57;;;5.18;;
4704;SDS011;2366;51.332;6.610;2022-09-30T12:04:40;6.05;;;5.40;;
4704;SDS011;2366;51.332;6.610;2022-09-30T12:09:30;5.45;;;4.72;;
4704;SDS011;2366;51.332;6.610;2022-09-30T12:12:08;8.73;;;4.35;;
4704;SDS011;2366;51.332;6.610;2022-09-30T12:19:51;13.20;;;4.30;;
4704;SDS011;2366;51.332;6.610;2022-09-30T12:24:53;6.32;;;4.03;;
4704;SDS011;2366;51.332;6.610;2022-09-30T12:27:23;5.37;;;3.83;;
4704;SDS011;2366;51.332;6.610;2022-09-30T12:29:56;4.20;;;3.75;;
4704;SDS011;2366;51.332;6.610;2022-09-30T12:40:54;7.38;;;4.80;;
4704;SDS011;2366;51.332;6.610;2022-09-30T12:48:51;4.38;;;3.97;;
4704;SDS011;2366;51.332;6.610;2022-09-30T12:51:23;4.70;;;3.47;;
4704;SDS011;2366;51.332;6.610;2022-09-30T12:54:01;4.68;;;3.17;;
4704;SDS011;2366;51.332;6.610;2022-09-30T12:56:36;4.18;;;3.60;;
4704;SDS011;2366;51.332;6.610;2022-09-30T12:59:07;3.78;;;3.47;;
4704;SDS011;2366;51.332;6.610;2022-09-30T13:01:37;4.05;;;3.70;;
4704;SDS011;2366;51.332;6.610;2022-09-30T13:19:36;4.10;;;3.65;;
4704;SDS011;2366;51.332;6.610;2022-09-30T13:27:40;6.45;;;4.15;;
4704;SDS011;2366;51.332;6.610;2022-09-30T13:32:45;5.40;;;3.70;;
4704;SDS011;2366;51.332;6.610;2022-09-30T13:35:34;3.35;;;3.15;;
4704;SDS011;2366;51.332;6.610;2022-09-30T13:38:20;4.25;;;3.42;;
4704;SDS011;2366;51.332;6.610;2022-09-30T13:41:16;5.10;;;3.55;;
4704;SDS011;2366;51.332;6.610;2022-09-30T13:44:07;4.07;;;3.50;;
4704;SDS011;2366;51.332;6.610;2022-09-30T13:46:46;5.15;;;3.92;;
4704;SDS011;2366;51.332;6.610;2022-09-30T13:49:16;6.00;;;3.80;;
4704;SDS011;2366;51.332;6.610;2022-09-30T13:51:45;7.93;;;3.72;;
4704;SDS011;2366;51.332;6.610;2022-09-30T13:54:32;3.80;;;3.50;;
4704;SDS011;2366;51.332;6.610;2022-09-30T13:57:04;4.40;;;4.00;;
4704;SDS011;2366;51.332;6.610;2022-09-30T14:02:19;4.72;;;4.03;;
4704;SDS011;2366;51.332;6.610;2022-09-30T14:11:06;3.35;;;3.15;;
4704;SDS011;2366;51.332;6.610;2022-09-30T14:14:04;5.15;;;3.70;;
4704;SDS011;2366;51.332;6.610;2022-09-30T14:22:15;4.25;;;3.38;;
4704;SDS011;2366;51.332;6.610;2022-09-30T14:24:43;3.88;;;3.58;;
4704;SDS011;2366;51.332;6.610;2022-09-30T14:30:16;4.25;;;3.85;;
4704;SDS011;2366;51.332;6.610;2022-09-30T14:32:52;3.42;;;3.13;;
4704;SDS011;2366;51.332;6.610;2022-09-30T14:35:20;3.45;;;3.22;;
4704;SDS011;2366;51.332;6.610;2022-09-30T14:37:52;5.68;;;2.88;;
4704;SDS011;2366;51.332;6.610;2022-09-30T14:40:25;3.20;;;2.80;;
4704;SDS011;2366;51.332;6.610;2022-09-30T14:42:53;5.88;;;2.55;;
4704;SDS011;2366;51.332;6.610;2022-09-30T14:45:27;2.70;;;2.50;;
4704;SDS011;2366;51.332;6.610;2022-09-30T14:47:57;4.57;;;2.60;;
4704;SDS011;2366;51.332;6.610;2022-09-30T14:50:27;6.13;;;2.40;;
4704;SDS011;2366;51.332;6.610;2022-09-30T14:52:58;3.00;;;2.80;;
4704;SDS011;2366;51.332;6.610;2022-09-30T14:55:29;3.13;;;2.72;;
4704;SDS011;2366;51.332;6.610;2022-09-30T15:00:42;5.18;;;2.80;;
4704;SDS011;2366;51.332;6.610;2022-09-30T15:03:11;5.75;;;2.97;;
4704;SDS011;2366;51.332;6.610;2022-09-30T15:05:37;16.35;;;2.78;;
4704;SDS011;2366;51.332;6.610;2022-09-30T15:08:08;2.92;;;2.28;;
4704;SDS011;2366;51.332;6.610;2022-09-30T15:10:35;4.57;;;2.75;;
4704;SDS011;2366;51.332;6.610;2022-09-30T15:13:01;2.57;;;2.20;;
4704;SDS011;2366;51.332;6.610;2022-09-30T15:15:34;2.75;;;1.55;;
4704;SDS011;2366;51.332;6.610;2022-09-30T15:21:03;5.68;;;1.75;;
4704;SDS011;2366;51.332;6.610;2022-09-30T15:23:35;1.67;;;1.58;;
4704;SDS011;2366;51.332;6.610;2022-09-30T15:26:03;6.20;;;1.95;;
4704;SDS011;2366;51.332;6.610;2022-09-30T15:28:30;2.47;;;1.45;;
4704;SDS011;2366;51.332;6.610;2022-09-30T15:30:59;2.05;;;1.95;;
4704;SDS011;2366;51.332;6.610;2022-09-30T15:33:25;3.85;;;2.00;;
4704;SDS011;2366;51.332;6.610;2022-09-30T15:38:48;4.18;;;1.98;;
4704;SDS011;2366;51.332;6.610;2022-09-30T15:41:15;4.13;;;2.10;;
4704;SDS011;2366;51.332;6.610;2022-09-30T15:48:40;2.10;;;1.70;;
4704;SDS011;2366;51.332;6.610;2022-09-30T15:54:29;2.25;;;1.90;;
4704;SDS011;2366;51.332;6.610;2022-09-30T15:56:59;3.97;;;2.15;;
4704;SDS011;2366;51.332;6.610;2022-09-30T15:59:55;4.80;;;1.95;;
4704;SDS011;2366;51.332;6.610;2022-09-30T16:02:22;1.77;;;1.60;;
4704;SDS011;2366;51.332;6.610;2022-09-30T16:04:50;1.60;;;1.15;;
4704;SDS011;2366;51.332;6.610;2022-09-30T16:07:17;3.38;;;2.30;;
4704;SDS011;2366;51.332;6.610;2022-09-30T16:09:49;2.20;;;1.60;;
4704;SDS011;2366;51.332;6.610;2022-09-30T16:12:16;6.60;;;1.93;;
4704;SDS011;2366;51.332;6.610;2022-09-30T16:14:46;3.50;;;1.60;;
4704;SDS011;2366;51.332;6.610;2022-09-30T16:17:24;4.07;;;2.00;;
4704;SDS011;2366;51.332;6.610;2022-09-30T16:20:37;2.35;;;1.55;;
4704;SDS011;2366;51.332;6.610;2022-09-30T16:28:18;2.15;;;1.95;;
4704;SDS011;2366;51.332;6.610;2022-09-30T16:30:46;3.20;;;1.52;;
4704;SDS011;2366;51.332;6.610;2022-09-30T16:33:14;2.30;;;1.23;;
4704;SDS011;2366;51.332;6.610;2022-09-30T16:35:43;3.58;;;1.65;;
4704;SDS011;2366;51.332;6.610;2022-09-30T16:38:11;1.45;;;1.35;;
4704;SDS011;2366;51.332;6.610;2022-09-30T16:40:38;1.80;;;1.60;;
4704;SDS011;2366;51.332;6.610;2022-09-30T16:43:04;2.00;;;1.80;;
4704;SDS011;2366;51.332;6.610;2022-09-30T16:45:30;2.30;;;1.70;;
4704;SDS011;2366;51.332;6.610;2022-09-30T16:47:57;3.03;;;1.70;;
4704;SDS011;2366;51.332;6.610;2022-09-30T16:50:38;1.48;;;1.38;;
4704;SDS011;2366;51.332;6.610;2022-09-30T16:53:07;2.42;;;1.95;;
4704;SDS011;2366;51.332;6.610;2022-09-30T16:55:35;3.83;;;1.85;;
4704;SDS011;2366;51.332;6.610;2022-09-30T16:58:01;3.43;;;2.53;;
4704;SDS011;2366;51.332;6.610;2022-09-30T17:00:29;9.75;;;1.88;;
4704;SDS011;2366;51.332;6.610;2022-09-30T17:02:55;2.43;;;1.50;;
4704;SDS011;2366;51.332;6.610;2022-09-30T17:05:21;1.60;;;1.50;;
4704;SDS011;2366;51.332;6.610;2022-09-30T17:07:52;2.45;;;1.63;;
4704;SDS011;2366;51.332;6.610;2022-09-30T17:10:23;1.42;;;1.33;;
4704;SDS011;2366;51.332;6.610;2022-09-30T17:12:52;5.30;;;2.08;;
4704;SDS011;2366;51.332;6.610;2022-09-30T17:15:19;2.10;;;1.35;;
4704;SDS011;2366;51.332;6.610;2022-09-30T17:17:45;1.40;;;1.30;;
4704;SDS011;2366;51.332;6.610;2022-09-30T17:20:11;11.43;;;2.28;;
4704;SDS011;2366;51.332;6.610;2022-09-30T17:22:36;3.07;;;1.93;;
4704;SDS011;2366;51.332;6.610;2022-09-30T17:25:02;2.50;;;1.63;;
4704;SDS011;2366;51.332;6.610;2022-09-30T17:27:28;2.70;;;2.27;;
4704;SDS011;2366;51.332;6.610;2022-09-30T17:29:53;1.57;;;1.47;;
4704;SDS011;2366;51.332;6.610;2022-09-30T17:32:19;5.43;;;2.80;;
4704;SDS011;2366;51.332;6.610;2022-09-30T17:34:45;2.23;;;1.80;;
4704;SDS011;2366;51.332;6.610;2022-09-30T17:37:10;4.37;;;2.37;;
4704;SDS011;2366;51.332;6.610;2022-09-30T17:39:38;2.40;;;1.90;;
4704;SDS011;2366;51.332;6.610;2022-09-30T17:42:03;3.00;;;2.20;;
4704;SDS011;2366;51.332;6.610;2022-09-30T17:44:47;4.95;;;2.65;;
4704;SDS011;2366;51.332;6.610;2022-09-30T17:47:12;5.83;;;2.97;;
4704;SDS011;2366;51.332;6.610;2022-09-30T17:49:37;2.50;;;2.30;;
4704;SDS011;2366;51.332;6.610;2022-09-30T17:52:03;9.60;;;3.80;;
4704;SDS011;2366;51.332;6.610;2022-09-30T17:54:29;7.38;;;3.25;;
4704;SDS011;2366;51.332;6.610;2022-09-30T17:56:54;12.40;;;3.13;;
4704;SDS011;2366;51.332;6.610;2022-09-30T17:59:21;8.07;;;3.70;;
4704;SDS011;2366;51.332;6.610;2022-09-30T18:01:49;4.47;;;3.65;;
4704;SDS011;2366;51.332;6.610;2022-09-30T18:04:16;4.63;;;3.47;;
4704;SDS011;2366;51.332;6.610;2022-09-30T18:06:47;8.90;;;4.22;;
4704;SDS011;2366;51.332;6.610;2022-09-30T18:09:12;5.40;;;3.20;;
4704;SDS011;2366;51.332;6.610;2022-09-30T18:11:39;5.30;;;4.13;;
4704;SDS011;2366;51.332;6.610;2022-09-30T18:14:04;5.30;;;3.70;;
4704;SDS011;2366;51.332;6.610;2022-09-30T18:16:30;5.53;;;3.47;;
4704;SDS011;2366;51.332;6.610;2022-09-30T18:19:01;3.97;;;2.85;;
4704;SDS011;2366;51.332;6.610;2022-09-30T18:21:29;7.88;;;2.67;;
4704;SDS011;2366;51.332;6.610;2022-09-30T18:23:55;3.58;;;2.65;;
4704;SDS011;2366;51.332;6.610;2022-09-30T18:26:24;4.97;;;3.00;;
4704;SDS011;2366;51.332;6.610;2022-09-30T18:28:52;7.13;;;3.05;;
4704;SDS011;2366;51.332;6.610;2022-09-30T18:31:18;3.20;;;2.70;;
4704;SDS011;2366;51.332;6.610;2022-09-30T18:33:56;4.22;;;2.63;;
4704;SDS011;2366;51.332;6.610;2022-09-30T18:36:22;3.53;;;2.58;;
4704;SDS011;2366;51.332;6.610;2022-09-30T18:38:50;3.13;;;2.55;;
4704;SDS011;2366;51.332;6.610;2022-09-30T18:41:16;4.33;;;2.83;;
4704;SDS011;2366;51.332;6.610;2022-09-30T18:43:42;4.93;;;2.57;;
4704;SDS011;2366;51.332;6.610;2022-09-30T18:46:09;2.58;;;2.38;;
4704;SDS011;2366;51.332;6.610;2022-09-30T18:48:35;4.38;;;2.90;;
4704;SDS011;2366;51.332;6.610;2022-09-30T18:51:02;2.60;;;2.30;;
4704;SDS011;2366;51.332;6.610;2022-09-30T18:53:28;2.42;;;2.22;;